sensor_id;sensor_type;location;lat;lon;timestamp;temperature;humidity
21445;DHT22;10883;51.946;20.140;2023-03-29T00:00:41;-2.10;99.90
21445;DHT22;10883;51.946;20.140;2023-03-29T00:03:06;-2.00;99.90
21445;DHT22;10883;51.946;20.140;2023-03-29T00:05:33;-2.00;99.90
21445;DHT22;10883;51.946;20.140;2023-03-29T00:07:59;-2.00;99.90
21445;DHT22;10883;51.946;20.140;2023-03-29T00:10:30;-2.00;99.90
21445;DHT22;10883;51.946;20.140;2023-03-29T00:12:56;-2.00;99.90
21445;DHT22;10883;51.946;20.140;2023-03-29T00:15:22;-2.00;99.90
21445;DHT22;10883;51.946;20.140;2023-03-29T00:17:48;-2.00;99.90
21445;DHT22;10883;51.946;20.140;2023-03-29T00:20:15;-2.00;99.90
21445;DHT22;10883;51.946;20.140;2023-03-29T00:22:42;-2.00;99.90
21445;DHT22;10883;51.946;20.140;2023-03-29T00:25:09;-2.00;99.90
21445;DHT22;10883;51.946;20.140;2023-03-29T00:27:36;-2.10;99.90
21445;DHT22;10883;51.946;20.140;2023-03-29T00:30:03;-2.10;99.90
21445;DHT22;10883;51.946;20.140;2023-03-29T00:32:30;-2.10;99.90
21445;DHT22;10883;51.946;20.140;2023-03-29T00:34:57;-2.10;99.90
21445;DHT22;10883;51.946;20.140;2023-03-29T00:37:26;-2.10;99.90
21445;DHT22;10883;51.946;20.140;2023-03-29T00:39:55;-2.10;99.90
21445;DHT22;10883;51.946;20.140;2023-03-29T00:42:22;-2.10;99.90
21445;DHT22;10883;51.946;20.140;2023-03-29T00:50:02;-2.20;99.90
21445;DHT22;10883;51.946;20.140;2023-03-29T00:52:31;-2.30;99.90
21445;DHT22;10883;51.946;20.140;2023-03-29T00:55:00;-2.30;99.90
21445;DHT22;10883;51.946;20.140;2023-03-29T00:57:26;-2.30;99.90
21445;DHT22;10883;51.946;20.140;2023-03-29T00:59:55;-2.40;99.90
21445;DHT22;10883;51.946;20.140;2023-03-29T01:02:24;-2.50;99.90
21445;DHT22;10883;51.946;20.140;2023-03-29T01:04:57;-2.40;99.90
21445;DHT22;10883;51.946;20.140;2023-03-29T01:10:09;-2.40;99.90
21445;DHT22;10883;51.946;20.140;2023-03-29T01:12:42;-2.40;99.90
21445;DHT22;10883;51.946;20.140;2023-03-29T01:15:17;-2.50;99.90
21445;DHT22;10883;51.946;20.140;2023-03-29T01:17:44;-2.50;99.90
21445;DHT22;10883;51.946;20.140;2023-03-29T01:26:01;-2.60;99.90
21445;DHT22;10883;51.946;20.140;2023-03-29T01:28:37;-2.70;99.90
21445;DHT22;10883;51.946;20.140;2023-03-29T01:31:07;-2.80;99.90
21445;DHT22;10883;51.946;20.140;2023-03-29T01:33:41;-2.70;99.90
21445;DHT22;10883;51.946;20.140;2023-03-29T01:38:49;-2.80;99.90
21445;DHT22;10883;51.946;20.140;2023-03-29T01:41:17;-2.80;99.90
21445;DHT22;10883;51.946;20.140;2023-03-29T01:43:55;-2.80;99.90
21445;DHT22;10883;51.946;20.140;2023-03-29T01:46:33;-2.70;99.90
21445;DHT22;10883;51.946;20.140;2023-03-29T01:49:05;-2.70;99.90
21445;DHT22;10883;51.946;20.140;2023-03-29T01:51:54;-2.80;99.90
21445;DHT22;10883;51.946;20.140;2023-03-29T01:54:32;-2.90;99.90
21445;DHT22;10883;51.946;20.140;2023-03-29T01:57:00;-2.80;99.90
21445;DHT22;10883;51.946;20.140;2023-03-29T01:59:32;-2.80;99.90
21445;DHT22;10883;51.946;20.140;2023-03-29T02:02:01;-2.80;99.90
21445;DHT22;10883;51.946;20.140;2023-03-29T02:04:34;-2.70;99.90
21445;DHT22;10883;51.946;20.140;2023-03-29T02:07:02;-2.70;99.90
21445;DHT22;10883;51.946;20.140;2023-03-29T02:09:31;-2.60;99.90
21445;DHT22;10883;51.946;20.140;2023-03-29T02:12:01;-2.60;99.90
21445;DHT22;10883;51.946;20.140;2023-03-29T02:14:28;-2.60;99.90
21445;DHT22;10883;51.946;20.140;2023-03-29T02:16:55;-2.70;99.90
21445;DHT22;10883;51.946;20.140;2023-03-29T02:19:22;-2.70;99.90
21445;DHT22;10883;51.946;20.140;2023-03-29T02:21:56;-2.80;99.90
21445;DHT22;10883;51.946;20.140;2023-03-29T02:24:27;-2.90;99.90
21445;DHT22;10883;51.946;20.140;2023-03-29T02:26:57;-2.90;99.90
21445;DHT22;10883;51.946;20.140;2023-03-29T02:29:23;-2.90;99.90
21445;DHT22;10883;51.946;20.140;2023-03-29T02:32:02;-3.00;99.90
21445;DHT22;10883;51.946;20.140;2023-03-29T02:34:37;-3.00;99.90
21445;DHT22;10883;51.946;20.140;2023-03-29T02:37:09;-2.90;99.90
21445;DHT22;10883;51.946;20.140;2023-03-29T02:39:38;-3.10;99.90
21445;DHT22;10883;51.946;20.140;2023-03-29T02:42:06;-3.10;99.90
21445;DHT22;10883;51.946;20.140;2023-03-29T02:44:35;-3.10;99.90
21445;DHT22;10883;51.946;20.140;2023-03-29T02:47:11;-3.00;99.90
21445;DHT22;10883;51.946;20.140;2023-03-29T02:49:38;-3.10;99.90
21445;DHT22;10883;51.946;20.140;2023-03-29T02:52:08;-3.00;99.90
21445;DHT22;10883;51.946;20.140;2023-03-29T02:54:36;-3.10;99.90
21445;DHT22;10883;51.946;20.140;2023-03-29T02:57:08;-3.20;99.90
21445;DHT22;10883;51.946;20.140;2023-03-29T02:59:35;-3.20;99.90
21445;DHT22;10883;51.946;20.140;2023-03-29T03:02:03;-3.30;99.90
21445;DHT22;10883;51.946;20.140;2023-03-29T03:04:30;-3.30;99.90
21445;DHT22;10883;51.946;20.140;2023-03-29T03:06:57;-3.30;99.90
21445;DHT22;10883;51.946;20.140;2023-03-29T03:09:23;-3.40;99.90
21445;DHT22;10883;51.946;20.140;2023-03-29T03:11:49;-3.20;99.90
21445;DHT22;10883;51.946;20.140;2023-03-29T03:14:15;-3.10;99.90
21445;DHT22;10883;51.946;20.140;2023-03-29T03:16:41;-3.10;99.90
21445;DHT22;10883;51.946;20.140;2023-03-29T03:19:07;-3.10;99.90
21445;DHT22;10883;51.946;20.140;2023-03-29T03:21:35;-3.20;99.90
21445;DHT22;10883;51.946;20.140;2023-03-29T03:24:02;-3.20;99.90
21445;DHT22;10883;51.946;20.140;2023-03-29T03:26:28;-3.20;99.90
21445;DHT22;10883;51.946;20.140;2023-03-29T03:28:55;-3.20;99.90
21445;DHT22;10883;51.946;20.140;2023-03-29T03:31:21;-3.00;99.90
21445;DHT22;10883;51.946;20.140;2023-03-29T03:33:47;-3.00;99.90
21445;DHT22;10883;51.946;20.140;2023-03-29T03:36:12;-2.90;99.90
21445;DHT22;10883;51.946;20.140;2023-03-29T03:38:38;-3.00;99.90
21445;DHT22;10883;51.946;20.140;2023-03-29T03:41:05;-3.00;99.90
21445;DHT22;10883;51.946;20.140;2023-03-29T03:43:34;-3.00;99.90
21445;DHT22;10883;51.946;20.140;2023-03-29T03:46:00;-3.00;99.90
21445;DHT22;10883;51.946;20.140;2023-03-29T03:48:26;-3.10;99.90
21445;DHT22;10883;51.946;20.140;2023-03-29T03:50:55;-3.20;99.90
21445;DHT22;10883;51.946;20.140;2023-03-29T03:53:22;-3.20;99.90
21445;DHT22;10883;51.946;20.140;2023-03-29T03:55:49;-3.30;99.90
21445;DHT22;10883;51.946;20.140;2023-03-29T03:58:16;-3.40;99.90
21445;DHT22;10883;51.946;20.140;2023-03-29T04:00:42;-3.40;99.90
21445;DHT22;10883;51.946;20.140;2023-03-29T04:03:09;-3.40;99.90
21445;DHT22;10883;51.946;20.140;2023-03-29T04:05:42;-3.50;99.90
21445;DHT22;10883;51.946;20.140;2023-03-29T04:08:10;-3.50;99.90
21445;DHT22;10883;51.946;20.140;2023-03-29T04:10:37;-3.50;99.90
21445;DHT22;10883;51.946;20.140;2023-03-29T04:13:03;-3.50;99.90
21445;DHT22;10883;51.946;20.140;2023-03-29T04:15:31;-3.60;99.90
21445;DHT22;10883;51.946;20.140;2023-03-29T04:17:58;-3.60;99.90
21445;DHT22;10883;51.946;20.140;2023-03-29T04:20:25;-3.70;99.90
21445;DHT22;10883;51.946;20.140;2023-03-29T04:22:52;-3.70;99.90
21445;DHT22;10883;51.946;20.140;2023-03-29T04:25:18;-3.60;99.90
21445;DHT22;10883;51.946;20.140;2023-03-29T04:27:46;-3.80;99.90
21445;DHT22;10883;51.946;20.140;2023-03-29T04:30:12;-3.80;99.90
21445;DHT22;10883;51.946;20.140;2023-03-29T04:32:38;-3.90;99.90
21445;DHT22;10883;51.946;20.140;2023-03-29T04:35:04;-3.90;99.90
21445;DHT22;10883;51.946;20.140;2023-03-29T04:37:31;-3.80;99.90
21445;DHT22;10883;51.946;20.140;2023-03-29T04:39:57;-3.70;99.90
21445;DHT22;10883;51.946;20.140;2023-03-29T04:42:29;-3.60;99.90
21445;DHT22;10883;51.946;20.140;2023-03-29T04:44:55;-3.60;99.90
21445;DHT22;10883;51.946;20.140;2023-03-29T04:47:22;-3.50;99.90
21445;DHT22;10883;51.946;20.140;2023-03-29T04:49:47;-3.40;99.90
21445;DHT22;10883;51.946;20.140;2023-03-29T04:52:13;-3.30;99.90
21445;DHT22;10883;51.946;20.140;2023-03-29T04:54:39;-3.30;99.90
21445;DHT22;10883;51.946;20.140;2023-03-29T04:57:06;-3.20;99.90
21445;DHT22;10883;51.946;20.140;2023-03-29T04:59:33;-3.10;99.90
21445;DHT22;10883;51.946;20.140;2023-03-29T05:02:02;-2.90;99.90
21445;DHT22;10883;51.946;20.140;2023-03-29T05:04:30;-2.90;99.90
21445;DHT22;10883;51.946;20.140;2023-03-29T05:06:57;-2.80;99.90
21445;DHT22;10883;51.946;20.140;2023-03-29T05:09:24;-2.80;99.90
21445;DHT22;10883;51.946;20.140;2023-03-29T05:11:50;-2.70;99.90
21445;DHT22;10883;51.946;20.140;2023-03-29T05:14:16;-2.60;99.90
21445;DHT22;10883;51.946;20.140;2023-03-29T05:16:42;-2.50;99.90
21445;DHT22;10883;51.946;20.140;2023-03-29T05:19:08;-2.30;99.90
21445;DHT22;10883;51.946;20.140;2023-03-29T05:21:35;-2.20;99.90
21445;DHT22;10883;51.946;20.140;2023-03-29T05:24:02;-2.10;99.90
21445;DHT22;10883;51.946;20.140;2023-03-29T05:26:29;-2.00;99.90
21445;DHT22;10883;51.946;20.140;2023-03-29T05:28:55;-1.80;99.90
21445;DHT22;10883;51.946;20.140;2023-03-29T05:31:22;-1.80;99.90
21445;DHT22;10883;51.946;20.140;2023-03-29T05:33:49;-1.70;99.90
21445;DHT22;10883;51.946;20.140;2023-03-29T05:36:16;-1.60;99.90
21445;DHT22;10883;51.946;20.140;2023-03-29T05:38:43;-1.50;99.90
21445;DHT22;10883;51.946;20.140;2023-03-29T05:41:11;-1.40;99.90
21445;DHT22;10883;51.946;20.140;2023-03-29T05:43:37;-1.20;99.90
21445;DHT22;10883;51.946;20.140;2023-03-29T05:46:03;-1.10;99.90
21445;DHT22;10883;51.946;20.140;2023-03-29T05:48:30;-1.00;99.90
21445;DHT22;10883;51.946;20.140;2023-03-29T05:50:57;-0.80;99.90
21445;DHT22;10883;51.946;20.140;2023-03-29T05:53:24;-0.70;99.90
21445;DHT22;10883;51.946;20.140;2023-03-29T05:55:51;-0.50;99.90
21445;DHT22;10883;51.946;20.140;2023-03-29T05:58:18;1.00;99.90
21445;DHT22;10883;51.946;20.140;2023-03-29T06:00:47;5.10;99.90
21445;DHT22;10883;51.946;20.140;2023-03-29T06:03:18;7.50;94.50
21445;DHT22;10883;51.946;20.140;2023-03-29T06:05:48;9.10;86.70
21445;DHT22;10883;51.946;20.140;2023-03-29T06:08:19;10.90;78.40
21445;DHT22;10883;51.946;20.140;2023-03-29T06:10:45;12.00;73.60
21445;DHT22;10883;51.946;20.140;2023-03-29T06:13:11;12.20;69.90
21445;DHT22;10883;51.946;20.140;2023-03-29T06:15:37;12.60;68.30
21445;DHT22;10883;51.946;20.140;2023-03-29T06:18:03;12.60;66.30
21445;DHT22;10883;51.946;20.140;2023-03-29T06:20:30;13.30;63.80
21445;DHT22;10883;51.946;20.140;2023-03-29T06:22:57;12.60;65.00
21445;DHT22;10883;51.946;20.140;2023-03-29T06:25:22;12.80;62.50
21445;DHT22;10883;51.946;20.140;2023-03-29T06:27:49;10.20;65.80
21445;DHT22;10883;51.946;20.140;2023-03-29T06:30:16;6.80;73.80
21445;DHT22;10883;51.946;20.140;2023-03-29T06:32:44;4.80;81.30
21445;DHT22;10883;51.946;20.140;2023-03-29T06:35:10;4.00;85.30
21445;DHT22;10883;51.946;20.140;2023-03-29T06:37:36;4.00;85.10
21445;DHT22;10883;51.946;20.140;2023-03-29T06:40:05;7.10;81.20
21445;DHT22;10883;51.946;20.140;2023-03-29T06:42:32;11.40;78.70
21445;DHT22;10883;51.946;20.140;2023-03-29T06:44:58;13.50;64.90
21445;DHT22;10883;51.946;20.140;2023-03-29T06:47:24;13.70;59.60
21445;DHT22;10883;51.946;20.140;2023-03-29T06:49:55;14.30;59.00
21445;DHT22;10883;51.946;20.140;2023-03-29T06:52:21;14.90;57.70
21445;DHT22;10883;51.946;20.140;2023-03-29T06:54:47;15.10;56.70
21445;DHT22;10883;51.946;20.140;2023-03-29T06:57:13;16.50;54.00
21445;DHT22;10883;51.946;20.140;2023-03-29T06:59:39;17.80;52.60
21445;DHT22;10883;51.946;20.140;2023-03-29T07:02:05;18.40;50.50
21445;DHT22;10883;51.946;20.140;2023-03-29T07:04:31;18.10;49.60
21445;DHT22;10883;51.946;20.140;2023-03-29T07:06:57;18.40;49.20
21445;DHT22;10883;51.946;20.140;2023-03-29T07:09:30;17.60;50.70
21445;DHT22;10883;51.946;20.140;2023-03-29T07:11:56;18.00;49.20
21445;DHT22;10883;51.946;20.140;2023-03-29T07:14:23;18.20;49.50
21445;DHT22;10883;51.946;20.140;2023-03-29T07:16:53;19.30;48.20
21445;DHT22;10883;51.946;20.140;2023-03-29T07:19:20;19.50;47.20
21445;DHT22;10883;51.946;20.140;2023-03-29T07:21:47;18.90;47.00
21445;DHT22;10883;51.946;20.140;2023-03-29T07:24:13;19.90;46.80
21445;DHT22;10883;51.946;20.140;2023-03-29T07:26:39;19.70;46.80
21445;DHT22;10883;51.946;20.140;2023-03-29T07:29:04;20.70;46.40
21445;DHT22;10883;51.946;20.140;2023-03-29T07:31:30;20.20;46.20
21445;DHT22;10883;51.946;20.140;2023-03-29T07:33:59;20.40;45.50
21445;DHT22;10883;51.946;20.140;2023-03-29T07:36:25;20.30;44.70
21445;DHT22;10883;51.946;20.140;2023-03-29T07:38:53;21.20;44.60
21445;DHT22;10883;51.946;20.140;2023-03-29T07:41:21;21.70;43.60
21445;DHT22;10883;51.946;20.140;2023-03-29T07:43:47;21.50;43.30
21445;DHT22;10883;51.946;20.140;2023-03-29T07:46:14;22.10;42.40
21445;DHT22;10883;51.946;20.140;2023-03-29T07:48:40;20.10;42.50
21445;DHT22;10883;51.946;20.140;2023-03-29T07:51:06;20.80;42.70
21445;DHT22;10883;51.946;20.140;2023-03-29T07:53:32;21.00;41.60
21445;DHT22;10883;51.946;20.140;2023-03-29T07:55:58;21.20;40.80
21445;DHT22;10883;51.946;20.140;2023-03-29T07:58:24;22.70;40.50
21445;DHT22;10883;51.946;20.140;2023-03-29T08:00:50;23.40;39.40
21445;DHT22;10883;51.946;20.140;2023-03-29T08:03:15;20.00;41.30
21445;DHT22;10883;51.946;20.140;2023-03-29T08:05:41;19.20;41.40
21445;DHT22;10883;51.946;20.140;2023-03-29T08:08:07;20.10;41.00
21445;DHT22;10883;51.946;20.140;2023-03-29T08:10:36;22.10;39.30
21445;DHT22;10883;51.946;20.140;2023-03-29T08:13:06;22.60;38.10
21445;DHT22;10883;51.946;20.140;2023-03-29T08:15:34;23.50;36.50
21445;DHT22;10883;51.946;20.140;2023-03-29T08:18:02;21.50;37.00
21445;DHT22;10883;51.946;20.140;2023-03-29T08:20:28;22.00;37.30
21445;DHT22;10883;51.946;20.140;2023-03-29T08:22:54;22.40;37.70
21445;DHT22;10883;51.946;20.140;2023-03-29T08:25:21;24.10;36.70
21445;DHT22;10883;51.946;20.140;2023-03-29T08:27:47;24.60;37.00
21445;DHT22;10883;51.946;20.140;2023-03-29T08:30:13;25.70;35.10
21445;DHT22;10883;51.946;20.140;2023-03-29T08:32:39;24.70;34.80
21445;DHT22;10883;51.946;20.140;2023-03-29T08:35:06;25.00;34.80
21445;DHT22;10883;51.946;20.140;2023-03-29T08:37:34;26.50;34.80
21445;DHT22;10883;51.946;20.140;2023-03-29T08:40:01;23.70;35.40
21445;DHT22;10883;51.946;20.140;2023-03-29T08:45:24;21.30;38.40
21445;DHT22;10883;51.946;20.140;2023-03-29T08:50:35;24.00;36.70
21445;DHT22;10883;51.946;20.140;2023-03-29T08:53:10;23.70;37.20
21445;DHT22;10883;51.946;20.140;2023-03-29T08:55:41;22.60;37.80
21445;DHT22;10883;51.946;20.140;2023-03-29T08:58:13;23.10;37.30
21445;DHT22;10883;51.946;20.140;2023-03-29T09:00:52;24.20;37.80
21445;DHT22;10883;51.946;20.140;2023-03-29T09:03:23;23.20;39.00
21445;DHT22;10883;51.946;20.140;2023-03-29T09:05:56;25.90;37.60
21445;DHT22;10883;51.946;20.140;2023-03-29T09:08:23;26.10;35.90
21445;DHT22;10883;51.946;20.140;2023-03-29T09:16:59;23.70;36.60
21445;DHT22;10883;51.946;20.140;2023-03-29T09:19:10;24.10;36.30
21445;DHT22;10883;51.946;20.140;2023-03-29T09:27:34;20.20;40.00
21445;DHT22;10883;51.946;20.140;2023-03-29T09:38:23;21.00;41.00
21445;DHT22;10883;51.946;20.140;2023-03-29T09:40:54;22.70;37.70
21445;DHT22;10883;51.946;20.140;2023-03-29T09:43:28;23.70;37.00
21445;DHT22;10883;51.946;20.140;2023-03-29T09:45:57;24.30;36.60
21445;DHT22;10883;51.946;20.140;2023-03-29T09:48:25;23.00;36.60
21445;DHT22;10883;51.946;20.140;2023-03-29T09:50:53;22.10;39.00
21445;DHT22;10883;51.946;20.140;2023-03-29T09:53:20;20.60;38.80
21445;DHT22;10883;51.946;20.140;2023-03-29T09:55:49;18.20;39.30
21445;DHT22;10883;51.946;20.140;2023-03-29T09:58:23;17.40;43.10
21445;DHT22;10883;51.946;20.140;2023-03-29T10:00:49;18.40;40.70
21445;DHT22;10883;51.946;20.140;2023-03-29T10:03:24;16.20;43.00
21445;DHT22;10883;51.946;20.140;2023-03-29T10:05:51;14.70;45.20
21445;DHT22;10883;51.946;20.140;2023-03-29T10:08:34;15.70;44.70
21445;DHT22;10883;51.946;20.140;2023-03-29T10:11:07;16.10;44.50
21445;DHT22;10883;51.946;20.140;2023-03-29T10:13:35;15.70;42.90
21445;DHT22;10883;51.946;20.140;2023-03-29T10:16:20;17.40;40.10
21445;DHT22;10883;51.946;20.140;2023-03-29T10:18:46;19.60;41.80
21445;DHT22;10883;51.946;20.140;2023-03-29T10:21:13;22.10;37.60
21445;DHT22;10883;51.946;20.140;2023-03-29T10:23:44;19.70;38.50
21445;DHT22;10883;51.946;20.140;2023-03-29T10:26:20;17.80;40.00
21445;DHT22;10883;51.946;20.140;2023-03-29T10:28:50;17.70;39.60
21445;DHT22;10883;51.946;20.140;2023-03-29T10:31:19;18.10;41.00
21445;DHT22;10883;51.946;20.140;2023-03-29T10:33:55;19.40;40.00
21445;DHT22;10883;51.946;20.140;2023-03-29T10:36:22;19.60;37.90
21445;DHT22;10883;51.946;20.140;2023-03-29T10:38:52;19.10;39.40
21445;DHT22;10883;51.946;20.140;2023-03-29T10:41:20;17.10;43.10
21445;DHT22;10883;51.946;20.140;2023-03-29T10:43:49;17.40;43.10
21445;DHT22;10883;51.946;20.140;2023-03-29T10:46:27;14.00;46.00
21445;DHT22;10883;51.946;20.140;2023-03-29T10:49:02;14.00;47.10
21445;DHT22;10883;51.946;20.140;2023-03-29T10:51:35;16.90;44.20
21445;DHT22;10883;51.946;20.140;2023-03-29T10:54:02;18.80;40.50
21445;DHT22;10883;51.946;20.140;2023-03-29T10:56:40;20.60;38.40
21445;DHT22;10883;51.946;20.140;2023-03-29T11:26:52;20.60;40.40
21445;DHT22;10883;51.946;20.140;2023-03-29T11:29:32;19.60;40.40
21445;DHT22;10883;51.946;20.140;2023-03-29T11:32:46;20.50;40.70
21445;DHT22;10883;51.946;20.140;2023-03-29T11:35:09;21.70;38.20
21445;DHT22;10883;51.946;20.140;2023-03-29T11:40:09;17.80;44.00
21445;DHT22;10883;51.946;20.140;2023-03-29T11:42:44;16.90;43.10
21445;DHT22;10883;51.946;20.140;2023-03-29T11:45:35;17.00;45.00
21445;DHT22;10883;51.946;20.140;2023-03-29T11:48:08;17.90;44.30
21445;DHT22;10883;51.946;20.140;2023-03-29T11:50:45;16.30;44.70
21445;DHT22;10883;51.946;20.140;2023-03-29T11:53:19;14.80;46.10
21445;DHT22;10883;51.946;20.140;2023-03-29T11:55:48;15.50;49.70
21445;DHT22;10883;51.946;20.140;2023-03-29T11:58:27;15.30;45.90
21445;DHT22;10883;51.946;20.140;2023-03-29T12:00:59;15.80;45.80
21445;DHT22;10883;51.946;20.140;2023-03-29T12:03:43;17.50;45.70
21445;DHT22;10883;51.946;20.140;2023-03-29T12:06:16;19.50;42.10
21445;DHT22;10883;51.946;20.140;2023-03-29T12:09:01;19.70;41.10
21445;DHT22;10883;51.946;20.140;2023-03-29T12:14:12;16.40;41.90
21445;DHT22;10883;51.946;20.140;2023-03-29T12:16:44;16.10;44.90
21445;DHT22;10883;51.946;20.140;2023-03-29T12:21:58;16.50;43.80
21445;DHT22;10883;51.946;20.140;2023-03-29T12:24:29;16.60;43.90
21445;DHT22;10883;51.946;20.140;2023-03-29T12:40:40;13.90;47.80
21445;DHT22;10883;51.946;20.140;2023-03-29T12:43:08;13.90;48.90
21445;DHT22;10883;51.946;20.140;2023-03-29T12:45:43;15.50;45.50
21445;DHT22;10883;51.946;20.140;2023-03-29T12:48:31;17.60;43.00
21445;DHT22;10883;51.946;20.140;2023-03-29T12:51:00;17.20;43.00
21445;DHT22;10883;51.946;20.140;2023-03-29T12:53:32;16.30;43.30
21445;DHT22;10883;51.946;20.140;2023-03-29T13:01:55;16.50;45.10
21445;DHT22;10883;51.946;20.140;2023-03-29T13:07:00;17.60;48.60
21445;DHT22;10883;51.946;20.140;2023-03-29T13:09:46;20.00;40.90
21445;DHT22;10883;51.946;20.140;2023-03-29T13:14:49;20.30;40.00
21445;DHT22;10883;51.946;20.140;2023-03-29T13:17:34;19.20;41.50
21445;DHT22;10883;51.946;20.140;2023-03-29T13:30:43;20.20;41.70
21445;DHT22;10883;51.946;20.140;2023-03-29T13:38:28;21.20;40.80
21445;DHT22;10883;51.946;20.140;2023-03-29T13:41:25;20.20;39.90
21445;DHT22;10883;51.946;20.140;2023-03-29T13:43:54;20.30;43.60
21445;DHT22;10883;51.946;20.140;2023-03-29T13:49:16;17.80;42.80
21445;DHT22;10883;51.946;20.140;2023-03-29T13:52:12;19.50;42.50
21445;DHT22;10883;51.946;20.140;2023-03-29T13:57:45;19.50;41.80
21445;DHT22;10883;51.946;20.140;2023-03-29T14:03:11;18.40;43.00
21445;DHT22;10883;51.946;20.140;2023-03-29T14:05:41;19.00;42.50
21445;DHT22;10883;51.946;20.140;2023-03-29T14:08:19;20.40;42.10
21445;DHT22;10883;51.946;20.140;2023-03-29T14:10:46;21.30;41.80
21445;DHT22;10883;51.946;20.140;2023-03-29T14:13:15;20.60;41.50
21445;DHT22;10883;51.946;20.140;2023-03-29T14:18:35;19.10;42.80
21445;DHT22;10883;51.946;20.140;2023-03-29T14:21:02;18.10;45.00
21445;DHT22;10883;51.946;20.140;2023-03-29T14:23:30;18.10;43.90
21445;DHT22;10883;51.946;20.140;2023-03-29T14:26:16;17.80;45.10
21445;DHT22;10883;51.946;20.140;2023-03-29T14:28:48;14.50;48.20
21445;DHT22;10883;51.946;20.140;2023-03-29T14:31:35;16.30;48.90
21445;DHT22;10883;51.946;20.140;2023-03-29T14:34:04;18.00;46.80
21445;DHT22;10883;51.946;20.140;2023-03-29T14:36:31;18.60;44.90
21445;DHT22;10883;51.946;20.140;2023-03-29T14:39:03;16.20;47.30
21445;DHT22;10883;51.946;20.140;2023-03-29T14:41:31;17.00;46.10
21445;DHT22;10883;51.946;20.140;2023-03-29T14:43:58;16.50;47.20
21445;DHT22;10883;51.946;20.140;2023-03-29T14:46:25;17.20;47.00
21445;DHT22;10883;51.946;20.140;2023-03-29T14:48:52;17.70;46.30
21445;DHT22;10883;51.946;20.140;2023-03-29T14:51:18;16.60;48.10
21445;DHT22;10883;51.946;20.140;2023-03-29T14:53:46;14.30;50.70
21445;DHT22;10883;51.946;20.140;2023-03-29T14:56:14;13.30;52.30
21445;DHT22;10883;51.946;20.140;2023-03-29T14:58:45;13.40;52.70
21445;DHT22;10883;51.946;20.140;2023-03-29T15:01:18;13.50;53.80
21445;DHT22;10883;51.946;20.140;2023-03-29T15:04:00;14.00;52.30
21445;DHT22;10883;51.946;20.140;2023-03-29T15:06:27;13.60;51.90
21445;DHT22;10883;51.946;20.140;2023-03-29T15:08:56;13.70;52.50
21445;DHT22;10883;51.946;20.140;2023-03-29T15:11:27;12.50;53.00
21445;DHT22;10883;51.946;20.140;2023-03-29T15:14:15;13.00;53.50
21445;DHT22;10883;51.946;20.140;2023-03-29T15:16:43;13.10;54.10
21445;DHT22;10883;51.946;20.140;2023-03-29T15:19:16;11.90;55.00
21445;DHT22;10883;51.946;20.140;2023-03-29T15:21:43;11.60;56.20
21445;DHT22;10883;51.946;20.140;2023-03-29T15:24:42;11.60;56.90
21445;DHT22;10883;51.946;20.140;2023-03-29T15:27:14;11.50;56.50
21445;DHT22;10883;51.946;20.140;2023-03-29T15:29:41;11.30;57.10
21445;DHT22;10883;51.946;20.140;2023-03-29T15:32:09;10.90;56.60
21445;DHT22;10883;51.946;20.140;2023-03-29T15:34:36;11.00;57.40
21445;DHT22;10883;51.946;20.140;2023-03-29T15:37:03;10.70;57.80
21445;DHT22;10883;51.946;20.140;2023-03-29T15:39:29;10.60;58.30
21445;DHT22;10883;51.946;20.140;2023-03-29T15:41:57;10.50;58.50
21445;DHT22;10883;51.946;20.140;2023-03-29T15:44:28;10.50;59.00
21445;DHT22;10883;51.946;20.140;2023-03-29T15:46:57;10.50;58.30
21445;DHT22;10883;51.946;20.140;2023-03-29T15:49:25;10.30;58.40
21445;DHT22;10883;51.946;20.140;2023-03-29T15:51:51;10.20;58.50
21445;DHT22;10883;51.946;20.140;2023-03-29T15:54:22;10.00;59.10
21445;DHT22;10883;51.946;20.140;2023-03-29T15:57:03;9.70;59.30
21445;DHT22;10883;51.946;20.140;2023-03-29T15:59:30;9.50;71.10
21445;DHT22;10883;51.946;20.140;2023-03-29T16:01:56;8.90;62.10
21445;DHT22;10883;51.946;20.140;2023-03-29T16:04:23;8.60;63.60
21445;DHT22;10883;51.946;20.140;2023-03-29T16:06:51;8.40;65.60
21445;DHT22;10883;51.946;20.140;2023-03-29T16:09:18;8.40;66.00
21445;DHT22;10883;51.946;20.140;2023-03-29T16:11:45;8.30;67.10
21445;DHT22;10883;51.946;20.140;2023-03-29T16:14:23;8.10;67.20
21445;DHT22;10883;51.946;20.140;2023-03-29T16:16:50;8.00;67.80
21445;DHT22;10883;51.946;20.140;2023-03-29T16:19:16;8.00;68.70
21445;DHT22;10883;51.946;20.140;2023-03-29T16:21:43;8.00;69.20
21445;DHT22;10883;51.946;20.140;2023-03-29T16:24:17;7.90;69.40
21445;DHT22;10883;51.946;20.140;2023-03-29T16:26:47;7.80;70.30
21445;DHT22;10883;51.946;20.140;2023-03-29T16:29:13;7.60;70.70
21445;DHT22;10883;51.946;20.140;2023-03-29T16:31:41;7.50;70.90
21445;DHT22;10883;51.946;20.140;2023-03-29T16:34:08;7.40;72.20
21445;DHT22;10883;51.946;20.140;2023-03-29T16:36:35;7.30;72.50
21445;DHT22;10883;51.946;20.140;2023-03-29T16:39:01;7.20;72.90
21445;DHT22;10883;51.946;20.140;2023-03-29T16:41:27;7.00;73.60
21445;DHT22;10883;51.946;20.140;2023-03-29T16:43:53;6.90;74.70
21445;DHT22;10883;51.946;20.140;2023-03-29T16:46:19;6.90;75.30
21445;DHT22;10883;51.946;20.140;2023-03-29T16:48:45;6.80;75.70
21445;DHT22;10883;51.946;20.140;2023-03-29T16:51:11;6.80;76.30
21445;DHT22;10883;51.946;20.140;2023-03-29T16:53:36;6.60;77.10
21445;DHT22;10883;51.946;20.140;2023-03-29T16:56:03;6.60;78.30
21445;DHT22;10883;51.946;20.140;2023-03-29T16:58:29;6.50;78.10
21445;DHT22;10883;51.946;20.140;2023-03-29T17:00:55;6.60;78.30
21445;DHT22;10883;51.946;20.140;2023-03-29T17:03:21;6.60;78.30
21445;DHT22;10883;51.946;20.140;2023-03-29T17:05:51;6.50;78.70
21445;DHT22;10883;51.946;20.140;2023-03-29T17:08:19;6.40;80.50
21445;DHT22;10883;51.946;20.140;2023-03-29T17:10:50;6.30;80.80
21445;DHT22;10883;51.946;20.140;2023-03-29T17:13:17;6.30;82.50
21445;DHT22;10883;51.946;20.140;2023-03-29T17:15:44;6.10;83.80
21445;DHT22;10883;51.946;20.140;2023-03-29T17:18:10;6.10;81.80
21445;DHT22;10883;51.946;20.140;2023-03-29T17:20:40;6.20;82.70
21445;DHT22;10883;51.946;20.140;2023-03-29T17:23:06;6.00;83.30
21445;DHT22;10883;51.946;20.140;2023-03-29T17:25:33;6.00;86.30
21445;DHT22;10883;51.946;20.140;2023-03-29T17:27:59;5.80;88.60
21445;DHT22;10883;51.946;20.140;2023-03-29T17:30:26;5.50;91.80
21445;DHT22;10883;51.946;20.140;2023-03-29T17:32:52;5.20;91.60
21445;DHT22;10883;51.946;20.140;2023-03-29T17:35:18;5.00;92.00
21445;DHT22;10883;51.946;20.140;2023-03-29T17:37:46;4.80;92.40
21445;DHT22;10883;51.946;20.140;2023-03-29T17:40:12;4.70;96.60